< < Back
Terminal Aerodrome Forecast


Current Version              Previous Versions:   1  2  3  4  5  6  7  8  9  

Terminal Aerodrome Forecast

924
FTUS44 KBMX 182300
TAFMGM
TAF
KMGM 182320Z 1900/1924 36004KT P6SM BKN100
     FM190500 33002KT P6SM SCT100 BKN250
     FM190900 01004KT P6SM BKN030
     FM191600 04005KT P6SM VCSH BKN035 OVC050
     FM192100 02007KT 4SM RA BKN035 OVC050=

Latest METAR

132
SAUS80 KWBC 191300 RRA
MTRMGM
METAR KMGM 191253Z 03004KT 10SM CLR 06/02 A3018 RMK AO2 SLP220
T00560017


USA.gov is the U.S. government's official web portal to all federal, state and local government web resources and services.